createdAt,value
2022-09-10T00:03:29.303Z,2.00
2022-09-10T00:08:34.949Z,2.50
2022-09-10T00:13:40.891Z,2.20
2022-09-10T00:18:47.065Z,2.90
2022-09-10T00:23:52.654Z,2.90
2022-09-10T00:28:59.687Z,2.20
2022-09-10T00:34:05.905Z,1.50
2022-09-10T00:39:12.275Z,2.30
2022-09-10T00:44:35.697Z,1.70
2022-09-10T00:49:43.423Z,1.10
2022-09-10T00:54:49.206Z,1.70
2022-09-10T00:59:57.111Z,2.00
2022-09-10T01:05:03.405Z,1.90
2022-09-10T01:10:12.656Z,1.80
2022-09-10T01:21:52.662Z,3.10
2022-09-10T01:27:14.739Z,2.60
2022-09-10T01:32:24.668Z,2.30
2022-09-10T01:37:31.659Z,2.20
2022-09-10T01:42:39.478Z,1.80
2022-09-10T01:48:00.163Z,1.90
2022-09-10T01:53:14.084Z,1.80
2022-09-10T01:58:21.411Z,1.80
2022-09-10T02:03:33.921Z,2.10
2022-09-10T02:08:41.750Z,2.10
2022-09-10T02:13:47.744Z,1.80
2022-09-10T02:18:55.637Z,3.00
2022-09-10T02:24:06.040Z,2.00
2022-09-10T02:29:12.323Z,1.60
2022-09-10T02:34:17.906Z,2.40
2022-09-10T02:39:24.842Z,1.60
2022-09-10T02:44:30.360Z,2.00
2022-09-10T02:49:35.777Z,1.80
2022-09-10T02:54:41.306Z,1.90
2022-09-10T02:59:48.942Z,1.50
2022-09-10T03:04:54.875Z,2.50
2022-09-10T03:10:00.333Z,1.30
2022-09-10T03:15:07.141Z,1.60
2022-09-10T03:20:12.940Z,1.50
2022-09-10T03:25:18.433Z,2.00
2022-09-10T03:30:23.864Z,1.80
2022-09-10T03:35:31.436Z,2.00
2022-09-10T03:40:39.374Z,2.90
2022-09-10T03:45:49.337Z,2.80
2022-09-10T03:50:56.110Z,2.20
2022-09-10T03:56:01.589Z,2.20
2022-09-10T04:01:08.164Z,2.30
2022-09-10T04:06:14.618Z,2.20
2022-09-10T04:11:20.167Z,2.40
2022-09-10T04:16:26.063Z,2.00
2022-09-10T04:21:31.631Z,1.70
2022-09-10T04:26:37.332Z,2.20
2022-09-10T04:31:45.003Z,2.10
2022-09-10T04:36:53.729Z,2.10
2022-09-10T04:41:59.813Z,2.00
2022-09-10T04:47:07.416Z,2.00
2022-09-10T04:52:13.222Z,1.70
2022-09-10T04:57:18.864Z,2.60
2022-09-10T05:02:25.381Z,2.90
2022-09-10T05:07:31.022Z,2.90
2022-09-10T05:12:37.081Z,3.30
2022-09-10T05:17:42.923Z,2.80
2022-09-10T05:22:48.223Z,2.30
2022-09-10T05:27:53.684Z,1.90
2022-09-10T05:33:01.629Z,2.20
2022-09-10T05:38:09.393Z,2.20
2022-09-10T05:43:15.614Z,2.70
2022-09-10T05:48:25.186Z,2.10
2022-09-10T05:53:31.047Z,2.10
2022-09-10T05:58:37.339Z,2.20
2022-09-10T06:03:45.408Z,1.70
2022-09-10T06:08:53.602Z,1.90
2022-09-10T06:14:06.355Z,2.20
2022-09-10T06:19:11.851Z,1.80
2022-09-10T06:24:17.318Z,2.50
2022-09-10T06:29:25.212Z,2.50
2022-09-10T06:34:30.724Z,2.60
2022-09-10T06:39:36.294Z,2.30
2022-09-10T06:44:41.792Z,2.60
2022-09-10T06:50:04.580Z,2.40
2022-09-10T06:55:13.135Z,2.20
2022-09-10T07:00:22.271Z,2.00
2022-09-10T07:05:30.231Z,2.00
2022-09-10T07:10:37.444Z,2.30
2022-09-10T07:15:47.526Z,1.90
2022-09-10T07:20:54.206Z,1.70
2022-09-10T07:26:05.397Z,1.80
2022-09-10T07:31:17.649Z,1.60
2022-09-10T07:36:25.591Z,1.70
2022-09-10T07:41:32.554Z,1.60
2022-09-10T07:46:39.643Z,1.50
2022-09-10T07:51:47.749Z,2.10
2022-09-10T07:56:55.382Z,1.40
2022-09-10T08:02:01.228Z,2.00
2022-09-10T08:07:07.303Z,1.60
2022-09-10T08:12:14.729Z,1.60
2022-09-10T08:17:20.087Z,1.60
2022-09-10T08:22:33.581Z,1.70
2022-09-10T08:27:43.963Z,1.50
2022-09-10T08:32:50.077Z,1.70
2022-09-10T08:37:58.250Z,1.40
2022-09-10T08:43:05.320Z,1.50
2022-09-10T08:48:17.576Z,1.20
2022-09-10T08:53:27.086Z,1.50
2022-09-10T08:58:37.989Z,1.10
2022-09-10T09:03:45.349Z,1.40
2022-09-10T09:08:52.010Z,1.00
2022-09-10T09:14:09.251Z,0.90
2022-09-10T09:19:22.808Z,1.20
2022-09-10T09:24:34.786Z,1.10
2022-09-10T09:29:43.752Z,1.00
2022-09-10T09:34:51.979Z,1.10
2022-09-10T09:40:06.859Z,1.20
2022-09-10T09:45:20.742Z,1.30
2022-09-10T09:50:26.803Z,1.20
2022-09-10T09:55:34.482Z,1.80
2022-09-10T10:00:40.150Z,1.20
2022-09-10T10:05:48.575Z,1.00
2022-09-10T10:11:02.865Z,1.30
2022-09-10T10:16:18.382Z,1.10
2022-09-10T10:21:31.634Z,1.30
2022-09-10T10:26:44.351Z,1.30
2022-09-10T10:31:50.699Z,1.00
2022-09-10T10:37:01.940Z,1.40
2022-09-10T10:42:13.680Z,1.10
2022-09-10T10:47:35.408Z,1.10
2022-09-10T10:52:45.751Z,1.20
2022-09-10T11:03:00.487Z,1.00
2022-09-10T11:08:10.538Z,1.70
2022-09-10T11:13:21.986Z,1.20
2022-09-10T11:18:30.259Z,1.50
2022-09-10T11:23:47.300Z,0.90
2022-09-10T11:29:08.974Z,0.90
2022-09-10T11:34:17.022Z,1.00
2022-09-10T11:39:24.902Z,0.90
2022-09-10T11:44:36.837Z,1.00
2022-09-10T11:49:44.602Z,1.50
2022-09-10T11:54:50.096Z,0.90
2022-09-10T12:00:04.435Z,1.10
2022-09-10T12:05:20.114Z,0.70
2022-09-10T12:10:32.522Z,0.70
2022-09-10T12:15:39.377Z,1.10
2022-09-10T12:20:50.017Z,0.90
2022-09-10T12:26:01.545Z,1.10
2022-09-10T12:31:11.952Z,0.80
2022-09-10T12:36:37.326Z,0.90
2022-09-10T12:42:02.851Z,1.10
2022-09-10T12:47:27.856Z,0.60
2022-09-10T12:52:38.696Z,1.30
2022-09-10T12:57:50.815Z,0.80
2022-09-10T13:02:59.422Z,0.80
2022-09-10T13:08:08.913Z,1.80
2022-09-10T13:18:29.402Z,0.70
2022-09-10T13:23:51.027Z,0.80
2022-09-10T13:29:05.306Z,1.10
2022-09-10T13:34:32.120Z,0.90
2022-09-10T13:39:57.269Z,0.90
2022-09-10T13:45:19.151Z,1.20
2022-09-10T13:50:25.776Z,0.90
2022-09-10T13:55:32.156Z,0.90
2022-09-10T14:00:40.308Z,0.80
2022-09-10T14:05:48.216Z,1.00
2022-09-10T14:10:57.078Z,1.40
2022-09-10T14:16:04.876Z,1.10
2022-09-10T14:21:11.875Z,1.10
2022-09-10T14:26:23.500Z,1.30
2022-09-10T14:31:33.561Z,1.10
2022-09-10T14:36:41.016Z,1.20
2022-09-10T14:41:46.971Z,0.80
2022-09-10T14:46:54.202Z,0.70
2022-09-10T14:52:00.903Z,0.70
2022-09-10T14:57:09.974Z,1.20
2022-09-10T15:02:17.536Z,1.60
2022-09-10T15:07:23.720Z,1.10
2022-09-10T15:12:29.749Z,1.00
2022-09-10T15:17:35.264Z,1.00
2022-09-10T15:22:41.184Z,1.30
2022-09-10T15:27:46.442Z,1.60
2022-09-10T15:32:53.038Z,1.60
2022-09-10T15:38:01.677Z,1.60
2022-09-10T15:43:07.289Z,2.80
2022-09-10T15:48:12.591Z,1.60
2022-09-10T15:53:17.844Z,1.70
2022-09-10T15:58:26.252Z,2.20
2022-09-10T16:03:32.437Z,1.70
2022-09-10T16:08:37.885Z,1.60
2022-09-10T16:13:43.861Z,1.90
2022-09-10T16:18:51.430Z,1.60
2022-09-10T16:23:57.835Z,1.70
2022-09-10T16:29:06.516Z,2.10
2022-09-10T16:34:17.045Z,2.40
2022-09-10T16:39:23.886Z,2.20
2022-09-10T16:44:31.451Z,2.20
2022-09-10T16:49:37.403Z,2.60
2022-09-10T16:54:42.943Z,3.20
2022-09-10T16:59:50.338Z,2.80
2022-09-10T17:04:56.040Z,2.40
2022-09-10T17:10:02.296Z,3.40
2022-09-10T17:15:08.225Z,2.50
2022-09-10T17:20:14.552Z,2.70
2022-09-10T17:25:19.912Z,2.50
2022-09-10T17:30:25.745Z,2.70
2022-09-10T17:35:32.418Z,3.10
2022-09-10T17:40:38.854Z,3.10
2022-09-10T17:45:44.302Z,3.00
2022-09-10T17:50:50.177Z,4.00
2022-09-10T17:55:55.718Z,2.80
2022-09-10T18:01:01.893Z,3.10
2022-09-10T18:06:08.616Z,3.20
2022-09-10T18:11:16.435Z,2.30
2022-09-10T18:16:24.158Z,2.50
2022-09-10T18:21:31.285Z,2.10
2022-09-10T18:26:38.339Z,2.70
2022-09-10T18:31:45.484Z,2.10
2022-09-10T18:36:56.328Z,2.50
2022-09-10T18:42:02.578Z,2.50
2022-09-10T18:47:27.899Z,3.00
2022-09-10T18:52:37.143Z,2.60
2022-09-10T18:57:43.249Z,4.00
2022-09-10T19:02:49.533Z,4.50
2022-09-10T19:07:55.475Z,2.90
2022-09-10T19:13:05.330Z,3.50
2022-09-10T19:18:10.806Z,4.20
2022-09-10T19:23:19.732Z,5.80
2022-09-10T19:28:25.347Z,6.00
2022-09-10T19:33:30.675Z,5.60
2022-09-10T19:38:38.086Z,5.10
2022-09-10T19:43:43.545Z,4.80
2022-09-10T19:48:49.008Z,4.70
2022-09-10T19:53:55.125Z,4.80
2022-09-10T19:59:02.640Z,4.80
2022-09-10T20:04:08.900Z,4.60
2022-09-10T20:09:14.558Z,4.50
2022-09-10T20:14:20.266Z,4.40
2022-09-10T20:19:26.035Z,5.70
2022-09-10T20:24:31.451Z,4.90
2022-09-10T20:29:36.732Z,5.50
2022-09-10T20:34:42.102Z,5.40
2022-09-10T20:39:48.671Z,6.10
2022-09-10T20:44:54.935Z,6.20
2022-09-10T20:50:02.030Z,5.90
2022-09-10T20:55:08.486Z,5.90
2022-09-10T21:00:14.934Z,7.10
2022-09-10T21:05:21.922Z,8.30
2022-09-10T21:10:27.198Z,6.00
2022-09-10T21:15:33.463Z,6.70
2022-09-10T21:20:38.770Z,7.50
2022-09-10T21:25:52.450Z,7.80
2022-09-10T21:31:02.487Z,8.10
2022-09-10T21:36:09.874Z,9.20
2022-09-10T21:41:16.787Z,9.70
2022-09-10T21:46:22.105Z,9.30
2022-09-10T21:51:27.550Z,9.50
2022-09-10T21:56:33.475Z,6.60
2022-09-10T22:01:39.302Z,5.10
2022-09-10T22:06:44.890Z,4.20
2022-09-10T22:11:51.995Z,3.50
2022-09-10T22:17:00.168Z,3.10
2022-09-10T22:22:06.245Z,3.20
2022-09-10T22:27:11.613Z,2.90
2022-09-10T22:32:16.945Z,2.90
2022-09-10T22:37:22.536Z,3.60
2022-09-10T22:42:28.035Z,3.60
2022-09-10T22:47:33.477Z,3.50
2022-09-10T22:52:38.904Z,4.20
2022-09-10T22:57:45.345Z,4.20
2022-09-10T23:02:50.682Z,3.80
2022-09-10T23:07:56.160Z,4.00
2022-09-10T23:13:01.435Z,3.70
2022-09-10T23:18:06.854Z,3.00
2022-09-10T23:23:12.611Z,3.40
2022-09-10T23:28:17.918Z,3.50
2022-09-10T23:33:23.192Z,3.30
2022-09-10T23:38:28.848Z,3.20
2022-09-10T23:43:34.391Z,3.30
2022-09-10T23:48:39.816Z,3.60
2022-09-10T23:53:46.146Z,2.80
2022-09-10T23:58:52.263Z,2.90
